Insider Trading Report: Top 10 Insider buys of the week (page 2 of 3)

This insider trading report lists Top 10 Insider buys of the week, updated on April 19, 2019. (Actually we included top 50 insiders who scored the most in insider trading value).


Go to page:  1   2   3 
Top 10 Insider buys of the week, Updated April 19, 2019 (page 2 of 3) (Actually top 50 issuers are included)
Symbol Issuer Insider Name   Shares     Price     Value($)   Trade
Date
TPL Texas Pacific Land Trust Kinetics Asset Management Llc (10% Owner) 42 887.23 37,263 2019-04-17
VVV Valvoline Inc Meixelsperger Mary E (Chief Financial Officer) 7,500 18.71 140,325 2019-04-15
LTS Ladenburg Thalmann Financial Services Inc. Malamed Adam Scott (Executive VP and COO) 10,000 3.46 34,600 2019-04-12
  Malamed Adam Scott (Executive VP and COO) 15,000 3.48 52,125 2019-04-15
  Lampen Richard (CEO, President & Chairman) 10,000 3.43 34,300 2019-04-15
OTEL Otelco Inc. Sochet Ira 6,518 17.30 112,761 2019-04-15
STLY Hg Holdings, Inc. Hale Steven A Ii (Chairman and CEO) 200,532 .52 104,276 2019-04-16
TREC Trecora Resources Quarles Patrick D. (President and CEO) 406 9.71 3,941 2019-04-17
  Quarles Patrick D. (President and CEO) 2,584 9.59 24,770 2019-04-16
  Quarles Patrick D. (President and CEO) 7,010 9.32 65,312 2019-04-15
HY Hyster-yale Materials Handling, Inc. Williams David B (Other) 90 64.99 5,849 2019-04-11
  Kuipers Evelyn R (Other) 1 64.99 64 2019-04-11
  Kuipers Jacob A (Other) 2 64.99 129 2019-04-11
  2013 Trust Fbo Evelyn R. Kuipers (Other) 1 64.99 64 2019-04-11
  Butler Helen Rankin (Other) 90 64.99 5,849 2019-04-11
  Trust For Children Of Julia Kuipers Fbo Matilda Alan Kuipers (Other) 1 64.99 64 2019-04-11
  Kuipers Matilda Alan (Other) 1 64.99 64 2019-04-11
  Rankin Julia L (Other) 2 64.99 129 2019-04-11
  Rankin Claiborne R Jr (Other) 1 64.99 64 2019-04-11
  Rankin Claiborne Read Iii (Other) 1 64.99 64 2019-04-11
  Rankin Alfred M Et Al (Chairman) 197 64.99 12,803 2019-04-11
  Rankin Chloe O (Other) 22 64.99 1,429 2019-04-11
  Trust Dated 9/28/2000 Between Alfred M. Rankin, Jr., As Trustee & Bruce T. Rankin, For The Benefit Of Bruce T. Rankin (Other) 100 64.99 6,498 2019-04-11
  Rankin Bruce T (Other) 100 64.99 6,498 2019-04-11
  Rankin Alison A (Other) 21 64.99 1,364 2019-04-11
  Rankin Claiborne R (Director) 22 64.99 1,429 2019-04-11
  Rankin Clara L T (Other) 6 64.99 389 2019-04-11
  Claiborne Rankin Trust For Children Of Claiborne Rankin Jr Fbo Claiborne Read Rankin Iii (Other) 1 64.99 64 2019-04-11
  Butler John C Jr (Other) 90 64.99 5,849 2019-04-11
  Rankin Lauran (Other) 1 64.99 64 2019-04-11
  Rankin Corbin (Other) 74 64.99 4,809 2019-04-11
  Trust Dated 1/1/1977, Pnc Bank & Alfred M. Rankin, Jr. As Co-trustees & Clara L.t. Rankin, Fbo Clara L.t. Rankin (Other) 6 64.99 389 2019-04-11
  Rankin Thomas T (Other) 74 64.99 4,809 2019-04-11
  Rankin Roger F (Other) 21 64.99 1,364 2019-04-11
  Williams Clara R (Other) 90 64.99 5,849 2019-04-11
  Rankin Victoire G (Other) 197 64.99 12,803 2019-04-11
  Seelbach Chloe R (Other) 3 64.99 194 2019-04-11
  Seelbach Isabelle (Other) 1 64.99 64 2019-04-11
  Chloe R. Seelbach, Trustee Under Claiborne Rankin Trust For Children Of Chloe R. Seelbach Dtd 12/21/04 Fbo Isabelle Scott Seelbach (Other) 1 64.99 64 2019-04-11
  Seelbach Thomas Wilson (Other) 1 64.99 64 2019-04-11
  Seelbach Scott W (Other) 3 64.99 194 2019-04-11
  Chloe R. Seelbach, Trustee Under Claiborne Rankin Trust For Children Of Chloe R. Seelbach Dtd 12/21/04 Fbo Thomas Wilson Seelbach (Other) 1 64.99 64 2019-04-11
  Chloe R. Seelbach, Trustee Uad 2/2/05 The Taplin Elizabeth Seelbach Trust (Other) 1 64.99 64 2019-04-11
  Seelbach Taplin E (Other) 1 64.99 64 2019-04-11
BTN Ballantyne Strong, Inc. Moglia Joseph H 8,096 2.12 17,131 2019-04-12
  Moglia Joseph H 8,096 2.14 17,325 2019-04-11
  Moglia Joseph H 6,574 2.07 13,614 2019-04-17
  Moglia Joseph H 6,574 2.06 13,562 2019-04-16
  Moglia Joseph H 6,574 2.02 13,266 2019-04-15
WDFC Wd 40 Co Pittard Daniel E 400 165.00 66,000 2019-04-18
JMP Jmp Group Llc Jolson Joseph A (CEO) 7,506 3.98 29,836 2019-04-18
  Jolson Joseph A (CEO) 7,500 4.00 30,000 2019-04-17
  Jolson Joseph A (CEO) 1,300 3.98 5,175 2019-04-16
PAOS Amerinac Holding Corp. Lamb William A Iii 1,000 60.00 60,000 2019-04-01
HIO Western Asset High Income Opportunity Fund Inc. Weinstein Boaz (10% Owner) 11,816 4.94 58,371 2019-04-15
ABEO Abeona Therapeutics Inc. Van Duyne Richard B 6,000 7.71 46,260 2019-04-08
UPL Ultra Petroleum Corp Stratton J. Jay Jr. (See Remarks) 80,000 .55 44,160 2019-04-11
SCYX Scynexis Inc Taglietti Marco (Chief Executive Officer) 25,000 1.63 40,750 2019-04-17
YORW York Water Co Mcglaughlin Erin C (Director) 4 33.91 135 2019-04-15
  Cawley James H (Director) 1 33.91 33 2019-04-15
  Dotzel Cynthia (Director) 30 33.91 1,017 2019-04-15
  Gang Michael W (Director) 54 33.91 1,831 2019-04-15
  Kain George Hay Iii Esq (Director) 0 33.91 0 2019-04-15
  Keller Jody L (Director) 11 33.91 373 2019-04-15
  Newcomer Robert P (Director) 28 33.91 949 2019-04-15
  Rasmussen Steven R (Director) 9 33.91 305 2019-04-15
  Waters Ernest J (Director) 4 33.91 135 2019-04-15
  Hardman Mark J (VP- Technology) 1 33.91 33 2019-04-15
  Hines Jeffrey R (CEO & President) 173 32.32 5,592 2019-04-16
  Hines Jeffrey R (CEO & President) 334 33.91 11,326 2019-04-15
Go to page:  1   2   3